sensor_id;sensor_type;location;lat;lon;timestamp;temperature;humidity
24618;DHT22;12762;51.730;5.356;2024-01-11T00:02:07;-3.00;65.60
24618;DHT22;12762;51.730;5.356;2024-01-11T00:04:34;-3.00;65.70
24618;DHT22;12762;51.730;5.356;2024-01-11T00:07:03;-3.00;65.70
24618;DHT22;12762;51.730;5.356;2024-01-11T00:09:30;-3.00;65.80
24618;DHT22;12762;51.730;5.356;2024-01-11T00:12:00;-3.00;65.80
24618;DHT22;12762;51.730;5.356;2024-01-11T00:14:27;-3.00;65.80
24618;DHT22;12762;51.730;5.356;2024-01-11T00:16:53;-3.00;65.90
24618;DHT22;12762;51.730;5.356;2024-01-11T00:19:20;-3.00;65.90
24618;DHT22;12762;51.730;5.356;2024-01-11T00:21:47;-3.00;65.90
24618;DHT22;12762;51.730;5.356;2024-01-11T00:24:14;-3.10;65.80
24618;DHT22;12762;51.730;5.356;2024-01-11T00:26:42;-3.10;65.90
24618;DHT22;12762;51.730;5.356;2024-01-11T00:29:09;-3.00;66.00
24618;DHT22;12762;51.730;5.356;2024-01-11T00:31:36;-3.00;66.10
24618;DHT22;12762;51.730;5.356;2024-01-11T00:34:04;-3.00;66.10
24618;DHT22;12762;51.730;5.356;2024-01-11T00:36:31;-3.00;66.10
24618;DHT22;12762;51.730;5.356;2024-01-11T00:38:59;-3.10;66.10
24618;DHT22;12762;51.730;5.356;2024-01-11T00:41:26;-3.10;66.10
24618;DHT22;12762;51.730;5.356;2024-01-11T00:43:53;-3.10;66.10
24618;DHT22;12762;51.730;5.356;2024-01-11T00:46:20;-3.00;66.20
24618;DHT22;12762;51.730;5.356;2024-01-11T00:48:46;-3.00;66.30
24618;DHT22;12762;51.730;5.356;2024-01-11T00:51:14;-3.00;66.30
24618;DHT22;12762;51.730;5.356;2024-01-11T00:53:41;-3.10;66.30
24618;DHT22;12762;51.730;5.356;2024-01-11T00:56:20;-3.10;66.30
24618;DHT22;12762;51.730;5.356;2024-01-11T00:58:52;-3.00;67.20
24618;DHT22;12762;51.730;5.356;2024-01-11T01:01:20;-3.00;66.40
24618;DHT22;12762;51.730;5.356;2024-01-11T01:03:46;-3.10;66.40
24618;DHT22;12762;51.730;5.356;2024-01-11T01:06:13;-3.10;66.40
24618;DHT22;12762;51.730;5.356;2024-01-11T01:08:40;-3.10;66.40
24618;DHT22;12762;51.730;5.356;2024-01-11T01:11:07;-3.10;66.40
24618;DHT22;12762;51.730;5.356;2024-01-11T01:13:34;-3.10;66.50
24618;DHT22;12762;51.730;5.356;2024-01-11T01:16:01;-3.10;66.50
24618;DHT22;12762;51.730;5.356;2024-01-11T01:18:27;-3.10;66.60
24618;DHT22;12762;51.730;5.356;2024-01-11T01:20:55;-3.20;66.50
24618;DHT22;12762;51.730;5.356;2024-01-11T01:23:22;-3.20;66.60
24618;DHT22;12762;51.730;5.356;2024-01-11T01:25:52;-3.20;66.60
24618;DHT22;12762;51.730;5.356;2024-01-11T01:28:18;-3.20;66.60
24618;DHT22;12762;51.730;5.356;2024-01-11T01:30:45;-3.20;66.70
24618;DHT22;12762;51.730;5.356;2024-01-11T01:33:12;-3.20;66.70
24618;DHT22;12762;51.730;5.356;2024-01-11T01:35:42;-3.20;66.80
24618;DHT22;12762;51.730;5.356;2024-01-11T01:38:09;-3.20;66.80
24618;DHT22;12762;51.730;5.356;2024-01-11T01:40:37;-3.20;66.80
24618;DHT22;12762;51.730;5.356;2024-01-11T01:43:07;-3.30;66.80
24618;DHT22;12762;51.730;5.356;2024-01-11T01:45:35;-3.30;66.90
24618;DHT22;12762;51.730;5.356;2024-01-11T01:48:02;-3.30;67.00
24618;DHT22;12762;51.730;5.356;2024-01-11T01:50:29;-3.30;66.90
24618;DHT22;12762;51.730;5.356;2024-01-11T01:52:57;-3.30;67.00
24618;DHT22;12762;51.730;5.356;2024-01-11T01:55:25;-3.30;67.00
24618;DHT22;12762;51.730;5.356;2024-01-11T01:57:53;-3.30;67.10
24618;DHT22;12762;51.730;5.356;2024-01-11T02:00:20;-3.30;67.10
24618;DHT22;12762;51.730;5.356;2024-01-11T02:02:50;-3.30;67.10
24618;DHT22;12762;51.730;5.356;2024-01-11T02:05:19;-3.40;67.10
24618;DHT22;12762;51.730;5.356;2024-01-11T02:07:46;-3.40;67.00
24618;DHT22;12762;51.730;5.356;2024-01-11T02:10:13;-3.40;67.10
24618;DHT22;12762;51.730;5.356;2024-01-11T02:12:41;-3.40;67.10
24618;DHT22;12762;51.730;5.356;2024-01-11T02:15:08;-3.40;67.20
24618;DHT22;12762;51.730;5.356;2024-01-11T02:17:35;-3.50;67.50
24618;DHT22;12762;51.730;5.356;2024-01-11T02:20:02;-3.50;67.30
24618;DHT22;12762;51.730;5.356;2024-01-11T02:22:42;-3.50;67.30
24618;DHT22;12762;51.730;5.356;2024-01-11T02:25:12;-3.50;67.30
24618;DHT22;12762;51.730;5.356;2024-01-11T02:27:49;-3.50;67.30
24618;DHT22;12762;51.730;5.356;2024-01-11T02:30:17;-3.50;67.40
24618;DHT22;12762;51.730;5.356;2024-01-11T02:32:46;-3.50;67.40
24618;DHT22;12762;51.730;5.356;2024-01-11T02:35:15;-3.50;67.40
24618;DHT22;12762;51.730;5.356;2024-01-11T02:37:43;-3.60;67.40
24618;DHT22;12762;51.730;5.356;2024-01-11T02:40:10;-3.60;67.40
24618;DHT22;12762;51.730;5.356;2024-01-11T02:42:41;-3.60;67.40
24618;DHT22;12762;51.730;5.356;2024-01-11T02:45:10;-3.60;67.40
24618;DHT22;12762;51.730;5.356;2024-01-11T02:47:38;-3.60;67.50
24618;DHT22;12762;51.730;5.356;2024-01-11T02:50:06;-3.60;67.50
24618;DHT22;12762;51.730;5.356;2024-01-11T02:52:34;-3.60;67.50
24618;DHT22;12762;51.730;5.356;2024-01-11T02:55:02;-3.70;67.50
24618;DHT22;12762;51.730;5.356;2024-01-11T02:57:28;-3.70;67.50
24618;DHT22;12762;51.730;5.356;2024-01-11T02:59:55;-3.70;67.50
24618;DHT22;12762;51.730;5.356;2024-01-11T03:02:22;-3.70;67.60
24618;DHT22;12762;51.730;5.356;2024-01-11T03:04:49;-3.70;67.60
24618;DHT22;12762;51.730;5.356;2024-01-11T03:07:16;-3.80;67.60
24618;DHT22;12762;51.730;5.356;2024-01-11T03:09:43;-3.80;67.60
24618;DHT22;12762;51.730;5.356;2024-01-11T03:12:10;-3.80;67.60
24618;DHT22;12762;51.730;5.356;2024-01-11T03:14:36;-3.80;68.50
24618;DHT22;12762;51.730;5.356;2024-01-11T03:17:03;-3.80;67.70
24618;DHT22;12762;51.730;5.356;2024-01-11T03:19:31;-3.80;67.80
24618;DHT22;12762;51.730;5.356;2024-01-11T03:21:58;-3.90;67.60
24618;DHT22;12762;51.730;5.356;2024-01-11T03:24:27;-3.90;67.70
24618;DHT22;12762;51.730;5.356;2024-01-11T03:26:54;-3.90;67.70
24618;DHT22;12762;51.730;5.356;2024-01-11T03:29:21;-3.90;67.70
24618;DHT22;12762;51.730;5.356;2024-01-11T03:31:48;-3.90;67.70
24618;DHT22;12762;51.730;5.356;2024-01-11T03:34:14;-3.90;67.80
24618;DHT22;12762;51.730;5.356;2024-01-11T03:36:41;-4.00;67.80
24618;DHT22;12762;51.730;5.356;2024-01-11T03:39:08;-4.00;67.80
24618;DHT22;12762;51.730;5.356;2024-01-11T03:41:35;-4.00;67.80
24618;DHT22;12762;51.730;5.356;2024-01-11T03:44:02;-4.00;67.80
24618;DHT22;12762;51.730;5.356;2024-01-11T03:46:28;-4.00;67.80
24618;DHT22;12762;51.730;5.356;2024-01-11T03:48:55;-4.00;67.90
24618;DHT22;12762;51.730;5.356;2024-01-11T03:51:23;-4.00;67.90
24618;DHT22;12762;51.730;5.356;2024-01-11T03:53:52;-4.00;67.90
24618;DHT22;12762;51.730;5.356;2024-01-11T03:56:19;-4.00;67.90
24618;DHT22;12762;51.730;5.356;2024-01-11T03:58:46;-4.00;67.90
24618;DHT22;12762;51.730;5.356;2024-01-11T04:01:13;-4.00;68.80
24618;DHT22;12762;51.730;5.356;2024-01-11T04:03:41;-4.00;68.00
24618;DHT22;12762;51.730;5.356;2024-01-11T04:06:08;-4.10;68.00
24618;DHT22;12762;51.730;5.356;2024-01-11T04:08:35;-4.10;68.00
24618;DHT22;12762;51.730;5.356;2024-01-11T04:11:03;-4.10;68.00
24618;DHT22;12762;51.730;5.356;2024-01-11T04:13:31;-4.10;68.10
24618;DHT22;12762;51.730;5.356;2024-01-11T04:15:58;-4.10;68.10
24618;DHT22;12762;51.730;5.356;2024-01-11T04:18:24;-4.10;68.10
24618;DHT22;12762;51.730;5.356;2024-01-11T04:20:51;-4.10;68.10
24618;DHT22;12762;51.730;5.356;2024-01-11T04:23:20;-4.10;68.10
24618;DHT22;12762;51.730;5.356;2024-01-11T04:25:47;-4.10;68.20
24618;DHT22;12762;51.730;5.356;2024-01-11T04:28:14;-4.10;68.20
24618;DHT22;12762;51.730;5.356;2024-01-11T04:30:41;-4.10;68.20
24618;DHT22;12762;51.730;5.356;2024-01-11T04:33:08;-4.10;68.20
24618;DHT22;12762;51.730;5.356;2024-01-11T04:35:35;-4.10;68.30
24618;DHT22;12762;51.730;5.356;2024-01-11T04:38:02;-4.10;68.30
24618;DHT22;12762;51.730;5.356;2024-01-11T04:40:28;-4.10;68.40
24618;DHT22;12762;51.730;5.356;2024-01-11T04:42:55;-4.10;68.40
24618;DHT22;12762;51.730;5.356;2024-01-11T04:45:22;-4.10;68.40
24618;DHT22;12762;51.730;5.356;2024-01-11T04:47:50;-4.10;68.50
24618;DHT22;12762;51.730;5.356;2024-01-11T04:50:18;-4.10;68.50
24618;DHT22;12762;51.730;5.356;2024-01-11T04:52:48;-4.10;68.50
24618;DHT22;12762;51.730;5.356;2024-01-11T04:55:14;-4.10;68.50
24618;DHT22;12762;51.730;5.356;2024-01-11T04:57:41;-4.10;68.50
24618;DHT22;12762;51.730;5.356;2024-01-11T05:00:08;-4.20;68.40
24618;DHT22;12762;51.730;5.356;2024-01-11T05:02:35;-4.20;68.40
24618;DHT22;12762;51.730;5.356;2024-01-11T05:05:02;-4.20;68.50
24618;DHT22;12762;51.730;5.356;2024-01-11T05:07:29;-4.20;68.50
24618;DHT22;12762;51.730;5.356;2024-01-11T05:09:58;-4.20;68.50
24618;DHT22;12762;51.730;5.356;2024-01-11T05:12:25;-4.20;68.60
24618;DHT22;12762;51.730;5.356;2024-01-11T05:14:52;-4.20;68.60
24618;DHT22;12762;51.730;5.356;2024-01-11T05:17:18;-4.20;68.70
24618;DHT22;12762;51.730;5.356;2024-01-11T05:19:45;-4.20;68.70
24618;DHT22;12762;51.730;5.356;2024-01-11T05:22:12;-4.30;68.60
24618;DHT22;12762;51.730;5.356;2024-01-11T05:24:39;-4.30;68.60
24618;DHT22;12762;51.730;5.356;2024-01-11T05:27:05;-4.30;68.70
24618;DHT22;12762;51.730;5.356;2024-01-11T05:29:32;-4.30;68.80
24618;DHT22;12762;51.730;5.356;2024-01-11T05:31:59;-4.30;68.80
24618;DHT22;12762;51.730;5.356;2024-01-11T05:34:26;-4.30;68.80
24618;DHT22;12762;51.730;5.356;2024-01-11T05:36:53;-4.30;68.90
24618;DHT22;12762;51.730;5.356;2024-01-11T05:39:21;-4.30;68.90
24618;DHT22;12762;51.730;5.356;2024-01-11T05:41:49;-4.30;69.00
24618;DHT22;12762;51.730;5.356;2024-01-11T05:44:16;-4.30;69.00
24618;DHT22;12762;51.730;5.356;2024-01-11T05:46:43;-4.30;69.00
24618;DHT22;12762;51.730;5.356;2024-01-11T05:49:10;-4.40;68.90
24618;DHT22;12762;51.730;5.356;2024-01-11T05:51:37;-4.40;68.90
24618;DHT22;12762;51.730;5.356;2024-01-11T05:54:04;-4.40;69.00
24618;DHT22;12762;51.730;5.356;2024-01-11T05:56:31;-4.40;69.00
24618;DHT22;12762;51.730;5.356;2024-01-11T05:58:57;-4.40;69.00
24618;DHT22;12762;51.730;5.356;2024-01-11T06:01:25;-4.40;69.10
24618;DHT22;12762;51.730;5.356;2024-01-11T06:03:52;-4.40;69.10
24618;DHT22;12762;51.730;5.356;2024-01-11T06:06:19;-4.50;69.00
24618;DHT22;12762;51.730;5.356;2024-01-11T06:08:46;-4.50;69.10
24618;DHT22;12762;51.730;5.356;2024-01-11T06:11:13;-4.50;69.10
24618;DHT22;12762;51.730;5.356;2024-01-11T06:13:43;-4.50;69.10
24618;DHT22;12762;51.730;5.356;2024-01-11T06:16:09;-4.50;69.10
24618;DHT22;12762;51.730;5.356;2024-01-11T06:18:39;-4.50;69.10
24618;DHT22;12762;51.730;5.356;2024-01-11T06:21:06;-4.50;69.10
24618;DHT22;12762;51.730;5.356;2024-01-11T06:23:35;-4.50;69.20
24618;DHT22;12762;51.730;5.356;2024-01-11T06:26:02;-4.50;69.20
24618;DHT22;12762;51.730;5.356;2024-01-11T06:28:29;-4.60;69.20
24618;DHT22;12762;51.730;5.356;2024-01-11T06:31:00;-4.60;69.20
24618;DHT22;12762;51.730;5.356;2024-01-11T06:33:26;-4.60;69.20
24618;DHT22;12762;51.730;5.356;2024-01-11T06:35:55;-4.60;69.20
24618;DHT22;12762;51.730;5.356;2024-01-11T06:38:22;-4.60;69.30
24618;DHT22;12762;51.730;5.356;2024-01-11T06:40:52;-4.60;69.30
24618;DHT22;12762;51.730;5.356;2024-01-11T06:43:18;-4.60;69.30
24618;DHT22;12762;51.730;5.356;2024-01-11T06:45:45;-4.60;69.40
24618;DHT22;12762;51.730;5.356;2024-01-11T06:48:12;-4.70;69.30
24618;DHT22;12762;51.730;5.356;2024-01-11T06:50:39;-4.70;69.40
24618;DHT22;12762;51.730;5.356;2024-01-11T06:53:06;-4.70;70.10
24618;DHT22;12762;51.730;5.356;2024-01-11T06:55:33;-4.70;69.40
24618;DHT22;12762;51.730;5.356;2024-01-11T06:58:03;-4.70;69.40
24618;DHT22;12762;51.730;5.356;2024-01-11T07:00:29;-4.70;69.40
24618;DHT22;12762;51.730;5.356;2024-01-11T07:02:56;-4.70;69.50
24618;DHT22;12762;51.730;5.356;2024-01-11T07:05:23;-4.70;69.50
24618;DHT22;12762;51.730;5.356;2024-01-11T07:07:50;-4.60;69.60
24618;DHT22;12762;51.730;5.356;2024-01-11T07:10:17;-4.60;69.60
24618;DHT22;12762;51.730;5.356;2024-01-11T07:12:45;-4.60;69.60
24618;DHT22;12762;51.730;5.356;2024-01-11T07:15:14;-4.60;69.60
24618;DHT22;12762;51.730;5.356;2024-01-11T07:17:41;-4.60;69.70
24618;DHT22;12762;51.730;5.356;2024-01-11T07:20:09;-4.60;69.60
24618;DHT22;12762;51.730;5.356;2024-01-11T07:22:36;-4.60;69.60
24618;DHT22;12762;51.730;5.356;2024-01-11T07:25:08;-4.60;69.60
24618;DHT22;12762;51.730;5.356;2024-01-11T07:27:34;-4.60;69.60
24618;DHT22;12762;51.730;5.356;2024-01-11T07:30:02;-4.60;69.70
24618;DHT22;12762;51.730;5.356;2024-01-11T07:32:29;-4.50;69.80
24618;DHT22;12762;51.730;5.356;2024-01-11T07:34:57;-4.50;69.80
24618;DHT22;12762;51.730;5.356;2024-01-11T07:37:24;-4.50;69.80
24618;DHT22;12762;51.730;5.356;2024-01-11T07:39:52;-4.50;69.80
24618;DHT22;12762;51.730;5.356;2024-01-11T07:42:21;-4.50;69.90
24618;DHT22;12762;51.730;5.356;2024-01-11T07:44:49;-4.50;70.00
24618;DHT22;12762;51.730;5.356;2024-01-11T07:47:16;-4.50;70.00
24618;DHT22;12762;51.730;5.356;2024-01-11T07:49:44;-4.50;70.00
24618;DHT22;12762;51.730;5.356;2024-01-11T07:52:11;-4.50;70.00
24618;DHT22;12762;51.730;5.356;2024-01-11T07:54:38;-4.50;70.00
24618;DHT22;12762;51.730;5.356;2024-01-11T07:57:04;-4.50;70.00
24618;DHT22;12762;51.730;5.356;2024-01-11T07:59:34;-4.50;70.00
24618;DHT22;12762;51.730;5.356;2024-01-11T08:02:04;-4.40;70.10
24618;DHT22;12762;51.730;5.356;2024-01-11T08:04:32;-4.40;70.10
24618;DHT22;12762;51.730;5.356;2024-01-11T08:06:59;-4.40;70.10
24618;DHT22;12762;51.730;5.356;2024-01-11T08:09:26;-4.40;70.10
24618;DHT22;12762;51.730;5.356;2024-01-11T08:11:56;-4.40;70.10
24618;DHT22;12762;51.730;5.356;2024-01-11T08:14:23;-4.40;70.20
24618;DHT22;12762;51.730;5.356;2024-01-11T08:16:51;-4.40;70.20
24618;DHT22;12762;51.730;5.356;2024-01-11T08:19:18;-4.40;70.20
24618;DHT22;12762;51.730;5.356;2024-01-11T08:21:47;-4.40;70.20
24618;DHT22;12762;51.730;5.356;2024-01-11T08:24:14;-4.30;70.30
24618;DHT22;12762;51.730;5.356;2024-01-11T08:26:41;-4.30;70.30
24618;DHT22;12762;51.730;5.356;2024-01-11T08:29:08;-4.30;70.30
24618;DHT22;12762;51.730;5.356;2024-01-11T08:31:36;-4.30;70.40
24618;DHT22;12762;51.730;5.356;2024-01-11T08:34:06;-4.20;70.40
24618;DHT22;12762;51.730;5.356;2024-01-11T08:36:33;-4.20;70.40
24618;DHT22;12762;51.730;5.356;2024-01-11T08:39:08;-4.20;70.40
24618;DHT22;12762;51.730;5.356;2024-01-11T08:41:34;-4.10;70.50
24618;DHT22;12762;51.730;5.356;2024-01-11T08:44:02;-4.10;70.60
24618;DHT22;12762;51.730;5.356;2024-01-11T08:46:29;-4.10;70.50
24618;DHT22;12762;51.730;5.356;2024-01-11T08:48:57;-4.00;70.60
24618;DHT22;12762;51.730;5.356;2024-01-11T08:51:25;-4.00;70.60
24618;DHT22;12762;51.730;5.356;2024-01-11T08:53:51;-4.00;71.40
24618;DHT22;12762;51.730;5.356;2024-01-11T08:56:19;-4.00;70.60
24618;DHT22;12762;51.730;5.356;2024-01-11T08:58:47;-3.90;70.80
24618;DHT22;12762;51.730;5.356;2024-01-11T09:01:15;-3.90;70.70
24618;DHT22;12762;51.730;5.356;2024-01-11T09:03:42;-3.80;70.80
24618;DHT22;12762;51.730;5.356;2024-01-11T09:06:09;-3.80;70.70
24618;DHT22;12762;51.730;5.356;2024-01-11T09:08:37;-3.70;70.90
24618;DHT22;12762;51.730;5.356;2024-01-11T09:11:03;-3.40;71.40
24618;DHT22;12762;51.730;5.356;2024-01-11T09:13:30;-2.50;72.50
24618;DHT22;12762;51.730;5.356;2024-01-11T09:15:58;-1.40;73.20
24618;DHT22;12762;51.730;5.356;2024-01-11T09:18:24;-0.40;72.90
24618;DHT22;12762;51.730;5.356;2024-01-11T09:20:51;0.10;72.10
24618;DHT22;12762;51.730;5.356;2024-01-11T09:23:18;0.10;70.90
24618;DHT22;12762;51.730;5.356;2024-01-11T09:25:45;-0.10;70.00
24618;DHT22;12762;51.730;5.356;2024-01-11T09:28:12;-0.40;69.20
24618;DHT22;12762;51.730;5.356;2024-01-11T09:30:42;-0.60;68.70
24618;DHT22;12762;51.730;5.356;2024-01-11T09:33:09;-0.80;68.40
24618;DHT22;12762;51.730;5.356;2024-01-11T09:35:36;-1.00;68.50
24618;DHT22;12762;51.730;5.356;2024-01-11T09:38:03;-1.10;68.50
24618;DHT22;12762;51.730;5.356;2024-01-11T09:40:33;-1.20;68.70
24618;DHT22;12762;51.730;5.356;2024-01-11T09:43:03;-1.20;69.00
24618;DHT22;12762;51.730;5.356;2024-01-11T09:45:31;-1.20;69.20
24618;DHT22;12762;51.730;5.356;2024-01-11T09:47:58;-1.20;69.40
24618;DHT22;12762;51.730;5.356;2024-01-11T09:50:25;-1.20;69.50
24618;DHT22;12762;51.730;5.356;2024-01-11T09:52:53;-1.10;69.80
24618;DHT22;12762;51.730;5.356;2024-01-11T09:55:19;-1.10;69.90
24618;DHT22;12762;51.730;5.356;2024-01-11T09:57:52;-1.00;70.10
24618;DHT22;12762;51.730;5.356;2024-01-11T10:00:23;-0.90;70.20
24618;DHT22;12762;51.730;5.356;2024-01-11T10:02:50;-0.80;70.40
24618;DHT22;12762;51.730;5.356;2024-01-11T10:05:18;-0.70;70.60
24618;DHT22;12762;51.730;5.356;2024-01-11T10:07:46;-0.70;70.50
24618;DHT22;12762;51.730;5.356;2024-01-11T10:10:12;-0.60;70.50
24618;DHT22;12762;51.730;5.356;2024-01-11T10:12:42;-0.50;70.60
24618;DHT22;12762;51.730;5.356;2024-01-11T10:15:09;-0.40;70.60
24618;DHT22;12762;51.730;5.356;2024-01-11T10:17:41;-0.40;70.60
24618;DHT22;12762;51.730;5.356;2024-01-11T10:20:14;-0.30;70.70
24618;DHT22;12762;51.730;5.356;2024-01-11T10:22:42;-0.20;70.70
24618;DHT22;12762;51.730;5.356;2024-01-11T10:25:11;-0.20;70.60
24618;DHT22;12762;51.730;5.356;2024-01-11T10:27:40;-0.10;70.70
24618;DHT22;12762;51.730;5.356;2024-01-11T10:30:12;0.00;70.70
24618;DHT22;12762;51.730;5.356;2024-01-11T10:32:52;0.10;70.80
24618;DHT22;12762;51.730;5.356;2024-01-11T10:35:20;0.20;70.80
24618;DHT22;12762;51.730;5.356;2024-01-11T10:37:50;0.20;70.70
24618;DHT22;12762;51.730;5.356;2024-01-11T10:40:20;0.20;70.70
24618;DHT22;12762;51.730;5.356;2024-01-11T10:42:51;0.30;70.70
24618;DHT22;12762;51.730;5.356;2024-01-11T10:45:20;0.30;70.70
24618;DHT22;12762;51.730;5.356;2024-01-11T10:47:53;0.40;70.80
24618;DHT22;12762;51.730;5.356;2024-01-11T10:50:23;0.50;70.80
24618;DHT22;12762;51.730;5.356;2024-01-11T10:53:12;0.60;70.80
24618;DHT22;12762;51.730;5.356;2024-01-11T10:55:41;0.70;70.90
24618;DHT22;12762;51.730;5.356;2024-01-11T10:58:09;0.80;70.90
24618;DHT22;12762;51.730;5.356;2024-01-11T11:00:37;0.80;70.80
24618;DHT22;12762;51.730;5.356;2024-01-11T11:03:05;0.90;70.80
24618;DHT22;12762;51.730;5.356;2024-01-11T11:05:34;1.00;70.90
24618;DHT22;12762;51.730;5.356;2024-01-11T11:08:04;1.00;70.70
24618;DHT22;12762;51.730;5.356;2024-01-11T11:10:33;1.10;70.60
24618;DHT22;12762;51.730;5.356;2024-01-11T11:13:00;1.10;70.50
24618;DHT22;12762;51.730;5.356;2024-01-11T11:15:27;1.10;70.60
24618;DHT22;12762;51.730;5.356;2024-01-11T11:17:55;1.20;70.50
24618;DHT22;12762;51.730;5.356;2024-01-11T11:20:23;1.20;70.40
24618;DHT22;12762;51.730;5.356;2024-01-11T11:23:06;1.20;70.40
24618;DHT22;12762;51.730;5.356;2024-01-11T11:25:34;1.20;70.30
24618;DHT22;12762;51.730;5.356;2024-01-11T11:28:01;1.30;70.50
24618;DHT22;12762;51.730;5.356;2024-01-11T11:30:31;1.30;70.50
24618;DHT22;12762;51.730;5.356;2024-01-11T11:33:16;1.40;70.40
24618;DHT22;12762;51.730;5.356;2024-01-11T11:35:43;1.40;70.40
24618;DHT22;12762;51.730;5.356;2024-01-11T11:38:29;1.50;70.40
24618;DHT22;12762;51.730;5.356;2024-01-11T11:40:58;1.50;70.30
24618;DHT22;12762;51.730;5.356;2024-01-11T11:43:28;1.60;70.40
24618;DHT22;12762;51.730;5.356;2024-01-11T11:45:57;1.60;70.10
24618;DHT22;12762;51.730;5.356;2024-01-11T11:51:09;1.60;70.10
24618;DHT22;12762;51.730;5.356;2024-01-11T11:53:37;1.70;70.20
24618;DHT22;12762;51.730;5.356;2024-01-11T11:56:05;1.70;70.30
24618;DHT22;12762;51.730;5.356;2024-01-11T11:58:33;1.80;70.40
24618;DHT22;12762;51.730;5.356;2024-01-11T12:01:01;1.80;70.30
24618;DHT22;12762;51.730;5.356;2024-01-11T12:03:36;1.80;70.30
24618;DHT22;12762;51.730;5.356;2024-01-11T12:06:07;1.90;70.50
24618;DHT22;12762;51.730;5.356;2024-01-11T12:08:36;1.90;70.60
24618;DHT22;12762;51.730;5.356;2024-01-11T12:11:03;2.00;70.70
24618;DHT22;12762;51.730;5.356;2024-01-11T12:13:31;2.10;70.80
24618;DHT22;12762;51.730;5.356;2024-01-11T12:15:59;2.10;70.80
24618;DHT22;12762;51.730;5.356;2024-01-11T12:18:26;2.10;70.90
24618;DHT22;12762;51.730;5.356;2024-01-11T12:20:53;2.20;71.20
24618;DHT22;12762;51.730;5.356;2024-01-11T12:23:23;2.20;71.20
24618;DHT22;12762;51.730;5.356;2024-01-11T12:25:50;2.20;71.20
24618;DHT22;12762;51.730;5.356;2024-01-11T12:28:17;2.20;71.20
24618;DHT22;12762;51.730;5.356;2024-01-11T12:30:45;2.20;71.30
24618;DHT22;12762;51.730;5.356;2024-01-11T12:33:15;2.10;71.30
24618;DHT22;12762;51.730;5.356;2024-01-11T12:35:42;2.10;71.50
24618;DHT22;12762;51.730;5.356;2024-01-11T12:38:10;2.10;71.70
24618;DHT22;12762;51.730;5.356;2024-01-11T12:40:37;2.10;71.80
24618;DHT22;12762;51.730;5.356;2024-01-11T12:43:05;2.10;71.90
24618;DHT22;12762;51.730;5.356;2024-01-11T12:45:32;2.10;72.00
24618;DHT22;12762;51.730;5.356;2024-01-11T12:48:00;2.10;72.10
24618;DHT22;12762;51.730;5.356;2024-01-11T12:50:28;2.10;72.20
24618;DHT22;12762;51.730;5.356;2024-01-11T12:53:24;2.10;72.30
24618;DHT22;12762;51.730;5.356;2024-01-11T12:56:15;2.20;72.50
24618;DHT22;12762;51.730;5.356;2024-01-11T12:58:42;2.20;72.60
24618;DHT22;12762;51.730;5.356;2024-01-11T13:01:09;2.20;72.60
24618;DHT22;12762;51.730;5.356;2024-01-11T13:03:38;2.20;72.70
24618;DHT22;12762;51.730;5.356;2024-01-11T13:06:09;2.20;72.80
24618;DHT22;12762;51.730;5.356;2024-01-11T13:08:38;2.20;72.80
24618;DHT22;12762;51.730;5.356;2024-01-11T13:11:12;2.20;72.90
24618;DHT22;12762;51.730;5.356;2024-01-11T13:13:41;2.20;73.00
24618;DHT22;12762;51.730;5.356;2024-01-11T13:16:07;2.20;73.00
24618;DHT22;12762;51.730;5.356;2024-01-11T13:18:40;2.20;73.20
24618;DHT22;12762;51.730;5.356;2024-01-11T13:21:07;2.20;73.20
24618;DHT22;12762;51.730;5.356;2024-01-11T13:23:34;2.20;73.40
24618;DHT22;12762;51.730;5.356;2024-01-11T13:26:02;2.20;73.40
24618;DHT22;12762;51.730;5.356;2024-01-11T13:28:29;2.20;73.40
24618;DHT22;12762;51.730;5.356;2024-01-11T13:30:59;2.20;73.50
24618;DHT22;12762;51.730;5.356;2024-01-11T13:33:26;2.20;73.60
24618;DHT22;12762;51.730;5.356;2024-01-11T13:35:53;2.30;73.70
24618;DHT22;12762;51.730;5.356;2024-01-11T13:38:23;2.30;73.80
24618;DHT22;12762;51.730;5.356;2024-01-11T13:40:51;2.30;73.90
24618;DHT22;12762;51.730;5.356;2024-01-11T13:43:18;2.30;73.90
24618;DHT22;12762;51.730;5.356;2024-01-11T13:45:46;2.40;74.00
24618;DHT22;12762;51.730;5.356;2024-01-11T13:48:13;2.40;74.00
24618;DHT22;12762;51.730;5.356;2024-01-11T13:50:40;2.40;73.90
24618;DHT22;12762;51.730;5.356;2024-01-11T13:53:07;2.40;73.90
24618;DHT22;12762;51.730;5.356;2024-01-11T13:55:34;2.40;73.90
24618;DHT22;12762;51.730;5.356;2024-01-11T13:58:06;2.40;74.80
24618;DHT22;12762;51.730;5.356;2024-01-11T14:00:33;2.40;74.00
24618;DHT22;12762;51.730;5.356;2024-01-11T14:03:05;2.30;74.00
24618;DHT22;12762;51.730;5.356;2024-01-11T14:05:33;2.30;74.00
24618;DHT22;12762;51.730;5.356;2024-01-11T14:08:03;2.30;74.10
24618;DHT22;12762;51.730;5.356;2024-01-11T14:10:35;2.30;74.20
24618;DHT22;12762;51.730;5.356;2024-01-11T14:13:02;2.30;74.30
24618;DHT22;12762;51.730;5.356;2024-01-11T14:15:32;2.30;74.30
24618;DHT22;12762;51.730;5.356;2024-01-11T14:17:59;2.30;74.40
24618;DHT22;12762;51.730;5.356;2024-01-11T14:20:26;2.30;74.40
24618;DHT22;12762;51.730;5.356;2024-01-11T14:22:56;2.30;74.40
24618;DHT22;12762;51.730;5.356;2024-01-11T14:25:23;2.30;74.50
24618;DHT22;12762;51.730;5.356;2024-01-11T14:27:56;2.30;74.60
24618;DHT22;12762;51.730;5.356;2024-01-11T14:30:22;2.20;74.40
24618;DHT22;12762;51.730;5.356;2024-01-11T14:32:49;2.20;74.50
24618;DHT22;12762;51.730;5.356;2024-01-11T14:35:17;2.20;74.50
24618;DHT22;12762;51.730;5.356;2024-01-11T14:37:44;2.20;74.60
24618;DHT22;12762;51.730;5.356;2024-01-11T14:40:11;2.30;74.70
24618;DHT22;12762;51.730;5.356;2024-01-11T14:42:39;2.30;74.70
24618;DHT22;12762;51.730;5.356;2024-01-11T14:45:06;2.30;74.80
24618;DHT22;12762;51.730;5.356;2024-01-11T14:47:34;2.30;74.80
24618;DHT22;12762;51.730;5.356;2024-01-11T14:50:02;2.30;74.80
24618;DHT22;12762;51.730;5.356;2024-01-11T14:52:37;2.30;74.80
24618;DHT22;12762;51.730;5.356;2024-01-11T14:55:06;2.30;74.80
24618;DHT22;12762;51.730;5.356;2024-01-11T14:57:34;2.30;75.00
24618;DHT22;12762;51.730;5.356;2024-01-11T15:00:00;2.30;75.00
24618;DHT22;12762;51.730;5.356;2024-01-11T15:02:27;2.30;75.00
24618;DHT22;12762;51.730;5.356;2024-01-11T15:04:57;2.30;75.10
24618;DHT22;12762;51.730;5.356;2024-01-11T15:07:25;2.30;75.10
24618;DHT22;12762;51.730;5.356;2024-01-11T15:09:52;2.30;75.00
24618;DHT22;12762;51.730;5.356;2024-01-11T15:12:19;2.30;75.00
24618;DHT22;12762;51.730;5.356;2024-01-11T15:14:48;2.30;75.00
24618;DHT22;12762;51.730;5.356;2024-01-11T15:17:18;2.30;75.00
24618;DHT22;12762;51.730;5.356;2024-01-11T15:19:46;2.30;75.10
24618;DHT22;12762;51.730;5.356;2024-01-11T15:22:14;2.30;75.10
24618;DHT22;12762;51.730;5.356;2024-01-11T15:24:42;2.30;75.10
24618;DHT22;12762;51.730;5.356;2024-01-11T15:27:20;2.30;75.10
24618;DHT22;12762;51.730;5.356;2024-01-11T15:29:50;2.30;75.20
24618;DHT22;12762;51.730;5.356;2024-01-11T15:32:18;2.30;75.20
24618;DHT22;12762;51.730;5.356;2024-01-11T15:34:45;2.30;75.30
24618;DHT22;12762;51.730;5.356;2024-01-11T15:37:11;2.30;75.30
24618;DHT22;12762;51.730;5.356;2024-01-11T15:39:38;2.30;75.30
24618;DHT22;12762;51.730;5.356;2024-01-11T15:42:05;2.30;75.30
24618;DHT22;12762;51.730;5.356;2024-01-11T15:44:32;2.30;75.30